Time;durP1;ratioP1;P1;durP2;ratioP2;P2;SDS_P1;SDS_P2;PMS_P1;PMS_P2;Temp;Humidity;BMP_temperature;BMP_pressure;BME280_temperature;BME280_humidity;BME280_pressure;Samples;Min_cycle;Max_cycle;Signal;HPM_P1;HPM_P2
2023/01/24 00:00:18;;;;;;;14.27;7.22;;;0.90;83.50;;;;;;5085053;28;20056;-61
2023/01/24 00:02:46;;;;;;;13.35;6.97;;;0.90;83.40;;;;;;5082444;28;20052;-60
2023/01/24 00:05:19;;;;;;;15.57;8.05;;;0.90;83.50;;;;;;5084817;28;20051;-65
2023/01/24 00:07:46;;;;;;;14.98;8.02;;;0.80;83.60;;;;;;5086296;28;20048;-65
2023/01/24 00:10:13;;;;;;;13.68;7.30;;;0.80;83.50;;;;;;5086933;28;20937;-65
2023/01/24 00:12:47;;;;;;;15.73;7.68;;;0.80;83.60;;;;;;5082758;28;20074;-66
2023/01/24 00:15:14;;;;;;;15.15;7.20;;;0.90;83.70;;;;;;5083569;28;20056;-65
2023/01/24 00:17:46;;;;;;;16.15;7.75;;;0.80;83.60;;;;;;5083972;28;20051;-64
2023/01/24 00:20:13;;;;;;;12.93;7.28;;;0.80;83.70;;;;;;5083855;28;20048;-65
2023/01/24 00:22:40;;;;;;;12.07;6.45;;;0.70;83.90;;;;;;5084085;28;20039;-64
2023/01/24 00:25:08;;;;;;;11.85;6.05;;;0.70;83.90;;;;;;5084909;28;20044;-65
2023/01/24 00:27:35;;;;;;;12.07;5.85;;;0.80;84.00;;;;;;5082617;28;20044;-65
2023/01/24 00:30:02;;;;;;;11.32;6.43;;;0.70;84.00;;;;;;5086412;28;20094;-67
2023/01/24 00:32:29;;;;;;;11.77;5.78;;;0.80;83.90;;;;;;5087418;28;20486;-61
2023/01/24 00:34:57;;;;;;;12.15;5.70;;;0.70;84.00;;;;;;5088744;28;20040;-63
2023/01/24 00:37:25;;;;;;;12.20;5.93;;;0.70;83.90;;;;;;5088566;28;20059;-61
2023/01/24 00:39:52;;;;;;;9.65;5.55;;;0.70;83.90;;;;;;5086693;28;20050;-62
2023/01/24 00:42:19;;;;;;;12.23;5.43;;;0.70;83.90;;;;;;5089039;28;20048;-61
2023/01/24 00:44:45;;;;;;;9.55;5.20;;;0.70;83.80;;;;;;5065358;28;20496;-61
2023/01/24 00:47:12;;;;;;;9.18;4.78;;;0.70;83.70;;;;;;5070199;28;20063;-60
2023/01/24 00:49:39;;;;;;;14.27;5.45;;;0.70;83.70;;;;;;5087997;28;20708;-62
2023/01/24 00:52:09;;;;;;;12.15;5.95;;;0.70;83.70;;;;;;5081881;28;20040;-65
2023/01/24 00:54:36;;;;;;;10.27;5.57;;;0.70;83.70;;;;;;5068360;28;20056;-65
2023/01/24 00:57:03;;;;;;;12.75;5.82;;;0.70;83.70;;;;;;5086856;28;20043;-64
2023/01/24 00:59:30;;;;;;;11.48;5.53;;;0.70;83.70;;;;;;5086771;28;20052;-65
2023/01/24 01:01:57;;;;;;;11.35;5.13;;;0.60;83.70;;;;;;5067710;28;20051;-61
2023/01/24 01:04:26;;;;;;;12.77;5.72;;;0.60;83.70;;;;;;5067545;28;20068;-60
2023/01/24 01:06:54;;;;;;;12.02;6.00;;;0.60;83.70;;;;;;5088760;28;20066;-61
2023/01/24 01:09:25;;;;;;;11.65;5.75;;;0.60;83.70;;;;;;5089463;28;20129;-60
2023/01/24 01:11:52;;;;;;;13.05;5.82;;;0.60;83.60;;;;;;5064410;28;20044;-60
2023/01/24 01:14:19;;;;;;;12.70;6.40;;;0.60;83.60;;;;;;5081650;28;20047;-61
2023/01/24 01:16:46;;;;;;;10.55;5.55;;;0.60;83.60;;;;;;5063619;28;20127;-59
2023/01/24 01:19:13;;;;;;;10.75;5.93;;;0.60;83.70;;;;;;5088032;28;20093;-58
2023/01/24 01:21:44;;;;;;;13.82;6.72;;;0.60;83.60;;;;;;5088995;28;20044;-61
2023/01/24 01:24:11;;;;;;;11.80;5.97;;;0.60;83.70;;;;;;5082820;28;20053;-61
2023/01/24 01:26:39;;;;;;;11.63;6.28;;;0.50;83.70;;;;;;5090067;28;20052;-61
2023/01/24 01:29:07;;;;;;;13.43;6.32;;;0.50;83.80;;;;;;5088276;28;20047;-61
2023/01/24 01:31:34;;;;;;;13.43;6.15;;;0.50;83.70;;;;;;5069779;28;20052;-60
2023/01/24 01:34:02;;;;;;;12.98;6.57;;;0.50;83.60;;;;;;5062752;28;20133;-60
2023/01/24 01:36:29;;;;;;;13.73;6.70;;;0.50;83.50;;;;;;5085806;28;20506;-64
2023/01/24 01:38:56;;;;;;;11.35;6.45;;;0.50;83.50;;;;;;5072451;28;20047;-64
2023/01/24 01:41:23;;;;;;;13.05;6.35;;;0.40;83.40;;;;;;5065765;28;20068;-70
2023/01/24 01:46:40;;;;;;;14.45;6.30;;;0.40;83.40;;;;;;5085452;28;20056;-69
2023/01/24 01:49:15;;;;;;;14.20;6.80;;;0.40;83.40;;;;;;5085567;28;20067;-70
2023/01/24 01:51:46;;;;;;;13.30;6.20;;;0.40;83.50;;;;;;5089666;28;20105;-70
2023/01/24 01:54:17;;;;;;;11.68;5.78;;;0.40;83.40;;;;;;5088314;28;20144;-70
2023/01/24 01:56:47;;;;;;;14.00;6.90;;;0.40;83.50;;;;;;5087867;28;20066;-61
2023/01/24 01:59:18;;;;;;;11.15;6.28;;;0.40;83.40;;;;;;5062524;28;20051;-61
2023/01/24 02:01:47;;;;;;;13.65;6.43;;;0.40;83.40;;;;;;5089178;28;20551;-60
2023/01/24 02:04:19;;;;;;;10.88;6.15;;;0.30;83.50;;;;;;5087817;28;20043;-61
2023/01/24 02:06:54;;;;;;;14.60;7.00;;;0.40;83.40;;;;;;5089176;28;20117;-59
2023/01/24 02:09:24;;;;;;;14.00;7.57;;;0.30;83.40;;;;;;5087557;28;20054;-58
2023/01/24 02:11:54;;;;;;;14.57;6.78;;;0.30;83.50;;;;;;5060353;28;20075;-72
2023/01/24 02:17:09;;;;;;;10.85;5.57;;;0.30;83.50;;;;;;5087182;28;20446;-71
2023/01/24 02:19:47;;;;;;;12.82;6.28;;;0.30;83.50;;;;;;5089005;28;20095;-73
2023/01/24 02:22:17;;;;;;;13.00;6.25;;;0.30;83.50;;;;;;5070571;28;20058;-59
2023/01/24 02:24:56;;;;;;;13.18;6.25;;;0.30;83.40;;;;;;5069899;28;20059;-59
2023/01/24 02:27:24;;;;;;;13.52;6.45;;;0.30;83.50;;;;;;5065625;28;20471;-60
2023/01/24 02:29:51;;;;;;;12.15;6.30;;;0.30;83.70;;;;;;5063013;28;20056;-60
2023/01/24 02:32:18;;;;;;;13.57;6.18;;;0.30;83.70;;;;;;5086168;28;20093;-70
2023/01/24 02:34:46;;;;;;;12.35;6.95;;;0.30;83.80;;;;;;5082768;28;20123;-69
2023/01/24 02:37:15;;;;;;;14.80;7.03;;;0.30;83.90;;;;;;5058929;28;20094;-70
2023/01/24 02:39:50;;;;;;;13.43;6.35;;;0.30;84.00;;;;;;5084365;28;20119;-70
2023/01/24 02:42:22;;;;;;;12.07;6.60;;;0.30;84.20;;;;;;5066848;28;20534;-70
2023/01/24 02:44:59;;;;;;;14.30;6.18;;;0.30;84.30;;;;;;5061983;28;20620;-70
2023/01/24 02:47:33;;;;;;;12.10;7.10;;;0.30;84.30;;;;;;5058561;28;20048;-70
2023/01/24 02:50:00;;;;;;;13.98;6.70;;;0.20;84.30;;;;;;5087550;28;20075;-70
2023/01/24 02:55:13;;;;;;;11.00;6.25;;;0.30;84.50;;;;;;5081034;28;20044;-70
2023/01/24 03:00:25;;;;;;;12.30;5.80;;;0.30;84.50;;;;;;5059589;28;20097;-72
2023/01/24 03:02:53;;;;;;;13.48;6.82;;;0.30;84.60;;;;;;5063023;28;20056;-71
2023/01/24 03:05:20;;;;;;;14.77;7.95;;;0.40;84.60;;;;;;5064705;28;20051;-68
2023/01/24 03:07:47;;;;;;;14.38;7.32;;;0.40;84.70;;;;;;5067268;28;20055;-70
2023/01/24 03:10:19;;;;;;;13.50;7.22;;;0.40;84.80;;;;;;5062172;28;20129;-69
2023/01/24 03:34:52;;;;;;;13.77;6.95;;;0.60;85.90;;;;;;5043436;28;20061;-69
2023/01/24 03:40:06;;;;;;;16.27;8.70;;;0.70;86.10;;;;;;5038044;28;20041;-70
2023/01/24 03:42:34;;;;;;;17.77;8.15;;;0.70;86.30;;;;;;5040548;28;20049;-69
2023/01/24 03:45:01;;;;;;;16.85;8.25;;;0.70;86.30;;;;;;5042238;28;20037;-69
2023/01/24 03:47:30;;;;;;;16.27;8.45;;;0.70;86.20;;;;;;5023614;28;20048;-63
2023/01/24 03:52:41;;;;;;;17.70;7.75;;;0.70;86.20;;;;;;5060605;28;20513;-64
2023/01/24 03:55:08;;;;;;;12.48;7.03;;;0.80;86.40;;;;;;5038330;28;20053;-64
2023/01/24 03:57:38;;;;;;;14.33;7.93;;;0.80;86.40;;;;;;5060250;28;20056;-63
2023/01/24 04:00:09;;;;;;;16.40;7.65;;;0.90;86.50;;;;;;5056683;28;22169;-63
2023/01/24 04:02:45;;;;;;;15.30;7.72;;;0.80;86.50;;;;;;5041585;28;20072;-64
2023/01/24 04:05:15;;;;;;;13.88;7.40;;;0.90;86.60;;;;;;5042264;28;20052;-63
2023/01/24 04:07:47;;;;;;;16.40;7.80;;;0.90;86.40;;;;;;5043374;28;20049;-63
2023/01/24 04:10:15;;;;;;;14.98;7.30;;;1.00;86.50;;;;;;5064908;28;20127;-63
2023/01/24 04:12:46;;;;;;;14.90;8.18;;;1.00;86.50;;;;;;5064925;28;21226;-63
2023/01/24 04:15:17;;;;;;;17.42;8.65;;;1.00;86.60;;;;;;5048741;28;20423;-63
2023/01/24 04:17:47;;;;;;;12.95;7.43;;;1.00;86.50;;;;;;5049235;28;20056;-64
2023/01/24 04:20:15;;;;;;;16.02;7.85;;;1.00;86.50;;;;;;5060132;28;20657;-65
2023/01/24 04:22:42;;;;;;;14.70;8.07;;;1.00;86.40;;;;;;5044012;28;20049;-64
2023/01/24 04:25:10;;;;;;;15.90;7.60;;;1.10;86.40;;;;;;5046932;28;20085;-64
2023/01/24 04:27:38;;;;;;;16.15;8.55;;;1.10;86.60;;;;;;5037937;28;20053;-63
2023/01/24 04:30:12;;;;;;;18.05;8.75;;;1.20;86.60;;;;;;5064366;28;20053;-63
2023/01/24 04:32:44;;;;;;;16.35;8.70;;;1.20;86.60;;;;;;5068010;28;20450;-64
2023/01/24 04:35:23;;;;;;;16.42;7.63;;;1.10;86.50;;;;;;5086010;28;20093;-63
2023/01/24 04:37:52;;;;;;;15.00;7.75;;;1.10;86.60;;;;;;5064196;28;20132;-63
2023/01/24 04:40:34;;;;;;;13.60;7.63;;;1.20;86.70;;;;;;5069212;28;20121;-59
2023/01/24 04:43:01;;;;;;;14.15;7.07;;;1.20;86.60;;;;;;5088416;28;20170;-60
2023/01/24 04:45:28;;;;;;;17.55;8.15;;;1.20;86.50;;;;;;5084279;28;20499;-59
2023/01/24 04:47:57;;;;;;;16.83;8.48;;;1.20;86.40;;;;;;5071330;28;20051;-59
2023/01/24 04:50:26;;;;;;;17.20;8.23;;;1.20;86.50;;;;;;5087832;28;20044;-60
2023/01/24 04:52:53;;;;;;;14.70;7.40;;;1.30;86.40;;;;;;5070958;28;20127;-59
2023/01/24 04:55:20;;;;;;;15.63;8.50;;;1.30;86.30;;;;;;5087449;28;20044;-61
2023/01/24 04:57:47;;;;;;;15.55;7.90;;;1.30;86.30;;;;;;5062528;28;20051;-60
2023/01/24 05:00:14;;;;;;;17.52;9.02;;;1.30;86.50;;;;;;5085190;28;20066;-59
2023/01/24 05:02:43;;;;;;;16.02;7.90;;;1.30;86.60;;;;;;5056631;28;20040;-59
2023/01/24 05:05:10;;;;;;;18.27;9.02;;;1.30;86.60;;;;;;5066976;28;20036;-60
2023/01/24 05:07:39;;;;;;;16.88;8.65;;;1.40;86.60;;;;;;5060732;28;20060;-61
2023/01/24 05:10:12;;;;;;;16.80;8.27;;;1.40;86.40;;;;;;5067747;28;20059;-60
2023/01/24 05:12:39;;;;;;;18.75;9.00;;;1.40;86.60;;;;;;5083151;28;20048;-60
2023/01/24 05:15:13;;;;;;;14.55;7.88;;;1.40;86.60;;;;;;5068983;28;20055;-60
2023/01/24 05:17:44;;;;;;;16.42;9.00;;;1.40;86.50;;;;;;5063939;28;20214;-61
2023/01/24 05:20:14;;;;;;;15.27;7.88;;;1.40;86.70;;;;;;5069585;28;20051;-60
2023/01/24 05:22:46;;;;;;;17.98;8.45;;;1.40;86.50;;;;;;5069993;28;20131;-60
2023/01/24 05:25:15;;;;;;;15.68;7.97;;;1.40;86.60;;;;;;5069027;28;20062;-61
2023/01/24 05:27:43;;;;;;;15.23;7.85;;;1.40;86.70;;;;;;5069744;28;20052;-59
2023/01/24 05:30:12;;;;;;;14.95;7.88;;;1.50;86.50;;;;;;5063207;28;20068;-59
2023/01/24 05:32:39;;;;;;;16.83;7.93;;;1.40;86.50;;;;;;5067844;28;20059;-60
2023/01/24 05:35:07;;;;;;;17.52;7.88;;;1.50;86.70;;;;;;5066151;28;20406;-60
2023/01/24 05:37:36;;;;;;;18.63;8.75;;;1.50;86.70;;;;;;5068814;28;20044;-61
2023/01/24 05:40:07;;;;;;;15.10;8.23;;;1.40;86.60;;;;;;5063208;28;20410;-60
2023/01/24 05:42:34;;;;;;;16.40;7.35;;;1.40;86.70;;;;;;5069151;28;20055;-61
2023/01/24 05:45:00;;;;;;;14.55;7.72;;;1.40;86.70;;;;;;5061180;28;20052;-60
2023/01/24 05:47:28;;;;;;;17.60;8.15;;;1.50;86.70;;;;;;5055913;28;20060;-66
2023/01/24 05:49:55;;;;;;;18.15;7.93;;;1.50;86.70;;;;;;5059366;28;20071;-65
2023/01/24 05:52:22;;;;;;;14.40;7.03;;;1.50;86.70;;;;;;5069611;28;20048;-63
2023/01/24 05:54:52;;;;;;;15.88;7.50;;;1.50;86.60;;;;;;5069129;28;20058;-64
2023/01/24 05:57:30;;;;;;;14.30;7.38;;;1.50;86.50;;;;;;5062814;28;20139;-63
2023/01/24 06:00:16;;;;;;;14.82;7.68;;;1.60;86.50;;;;;;5084781;28;20040;-63
2023/01/24 06:03:06;;;;;;;16.38;7.75;;;1.60;86.50;;;;;;5086667;28;20055;-63
2023/01/24 06:05:32;;;;;;;15.10;7.85;;;1.60;86.30;;;;;;5086857;28;20076;-62
2023/01/24 06:08:02;;;;;;;17.15;7.63;;;1.60;86.40;;;;;;5088431;28;20051;-65
2023/01/24 06:10:29;;;;;;;13.90;7.22;;;1.60;86.50;;;;;;5067638;28;20044;-71
2023/01/24 06:13:06;;;;;;;15.95;8.13;;;1.70;86.40;;;;;;5061563;28;20067;-71
2023/01/24 06:15:33;;;;;;;14.25;7.30;;;1.60;86.50;;;;;;5084216;28;20050;-72
2023/01/24 06:18:03;;;;;;;14.73;7.53;;;1.70;86.60;;;;;;5070812;28;20435;-70
2023/01/24 06:20:30;;;;;;;16.13;7.53;;;1.60;86.70;;;;;;5062477;28;20113;-59
2023/01/24 06:23:02;;;;;;;13.32;7.05;;;1.60;86.70;;;;;;5086769;28;21707;-58
2023/01/24 06:25:30;;;;;;;14.45;8.07;;;1.70;86.70;;;;;;5067096;28;20482;-60
2023/01/24 06:27:57;;;;;;;15.13;7.80;;;1.70;86.60;;;;;;5084298;28;20040;-60
2023/01/24 06:30:27;;;;;;;15.50;8.02;;;1.70;86.60;;;;;;5085409;28;20134;-60
2023/01/24 06:33:18;;;;;;;17.27;7.93;;;1.70;86.50;;;;;;5088479;28;20044;-62
2023/01/24 06:35:51;;;;;;;;;;;1.70;86.50;;;;;;5085625;28;20093;-59
2023/01/24 06:38:20;;;;;;;16.50;6.88;;;1.70;86.50;;;;;;5081175;28;19928;-59
2023/01/24 06:40:51;;;;;;;15.05;7.22;;;1.70;86.50;;;;;;5080518;28;20117;-63
2023/01/24 06:43:19;;;;;;;15.32;6.88;;;1.70;86.50;;;;;;5086086;28;20051;-63
2023/01/24 06:45:47;;;;;;;16.33;7.70;;;1.70;86.50;;;;;;5085663;28;20044;-63
2023/01/24 06:48:14;;;;;;;13.75;6.88;;;1.70;86.40;;;;;;5086013;28;20104;-64
2023/01/24 06:50:41;;;;;;;11.75;6.35;;;1.80;86.60;;;;;;5084038;28;20068;-64
2023/01/24 06:53:08;;;;;;;14.95;6.95;;;1.80;86.50;;;;;;5084259;28;20506;-64
2023/01/24 06:55:35;;;;;;;14.70;7.43;;;1.80;86.50;;;;;;5087925;28;20086;-65
2023/01/24 06:58:04;;;;;;;14.52;7.22;;;1.80;86.50;;;;;;5082939;28;20501;-66
2023/01/24 07:00:31;;;;;;;14.27;6.95;;;1.80;86.40;;;;;;5087545;28;20048;-68
2023/01/24 07:03:01;;;;;;;13.75;7.25;;;1.80;86.50;;;;;;5085607;28;20074;-69
2023/01/24 07:05:28;;;;;;;14.10;7.13;;;1.80;86.40;;;;;;5082134;28;20044;-68
2023/01/24 07:07:55;;;;;;;12.10;6.60;;;1.80;86.40;;;;;;5084061;28;20113;-69
2023/01/24 07:10:22;;;;;;;15.50;6.90;;;1.90;86.40;;;;;;5081532;28;20519;-60
2023/01/24 07:12:49;;;;;;;14.55;7.05;;;1.80;86.40;;;;;;5085954;28;20052;-60
2023/01/24 07:15:16;;;;;;;13.15;6.30;;;1.90;86.40;;;;;;5081069;28;20055;-60
2023/01/24 07:17:44;;;;;;;13.85;6.55;;;1.90;86.40;;;;;;5088333;28;20035;-60
2023/01/24 07:20:13;;;;;;;12.38;6.68;;;1.90;86.40;;;;;;5085072;28;20052;-60
2023/01/24 07:22:42;;;;;;;14.50;6.22;;;1.90;86.40;;;;;;5085696;28;20061;-60
2023/01/24 07:25:15;;;;;;;14.75;6.53;;;1.90;86.40;;;;;;5081033;28;20432;-61
2023/01/24 07:27:44;;;;;;;13.85;7.13;;;1.90;86.40;;;;;;5084863;28;20048;-61
2023/01/24 07:30:13;;;;;;;11.48;5.75;;;1.90;86.30;;;;;;5079948;28;20444;-60
2023/01/24 07:32:40;;;;;;;10.43;6.07;;;1.90;86.30;;;;;;5083418;28;20055;-60
2023/01/24 07:35:07;;;;;;;11.82;6.00;;;1.90;86.30;;;;;;5084108;28;20141;-60
2023/01/24 07:37:36;;;;;;;13.80;6.53;;;2.00;86.20;;;;;;5087984;28;20048;-60
2023/01/24 07:40:03;;;;;;;12.27;6.50;;;2.00;86.20;;;;;;5084993;28;20078;-61
2023/01/24 07:42:30;;;;;;;11.48;6.03;;;2.00;86.30;;;;;;5081653;28;20050;-58
2023/01/24 07:44:58;;;;;;;11.70;5.47;;;2.00;86.20;;;;;;5082529;28;20052;-58
2023/01/24 07:47:26;;;;;;;11.35;5.32;;;2.10;86.10;;;;;;5081443;28;20070;-59
2023/01/24 07:49:52;;;;;;;10.50;5.40;;;2.10;86.10;;;;;;5085191;28;20075;-59
2023/01/24 07:52:19;;;;;;;9.65;4.93;;;2.10;86.00;;;;;;5084619;28;20074;-59
2023/01/24 07:54:47;;;;;;;11.38;5.35;;;2.10;85.90;;;;;;5084727;28;20044;-58
2023/01/24 07:57:15;;;;;;;11.27;4.70;;;2.10;85.90;;;;;;5083717;28;20048;-59
2023/01/24 07:59:42;;;;;;;11.15;4.88;;;2.10;85.90;;;;;;5084180;28;20072;-58
2023/01/24 08:02:11;;;;;;;11.20;4.88;;;2.10;85.90;;;;;;5083939;28;20052;-59
2023/01/24 08:04:38;;;;;;;10.07;5.70;;;2.20;85.80;;;;;;5083509;28;20059;-58
2023/01/24 08:07:17;;;;;;;10.40;5.15;;;2.20;85.80;;;;;;5084232;28;20044;-60
2023/01/24 08:09:44;;;;;;;10.85;5.30;;;2.20;85.80;;;;;;5080970;28;20048;-58
2023/01/24 08:12:12;;;;;;;10.10;5.10;;;2.20;85.80;;;;;;5087320;28;20044;-67
2023/01/24 08:14:40;;;;;;;8.80;5.03;;;2.20;85.70;;;;;;5083104;28;20059;-65
2023/01/24 08:17:07;;;;;;;11.10;5.57;;;2.20;85.70;;;;;;5082510;28;20063;-65
2023/01/24 08:19:35;;;;;;;9.48;5.25;;;2.30;85.60;;;;;;5083922;28;20044;-65
2023/01/24 08:22:02;;;;;;;12.80;5.85;;;2.30;85.60;;;;;;5083859;28;20052;-65
2023/01/24 08:24:29;;;;;;;10.25;5.03;;;2.30;85.60;;;;;;5080664;28;20063;-65
2023/01/24 08:26:56;;;;;;;13.75;5.95;;;2.30;85.60;;;;;;5084192;28;20036;-64
2023/01/24 08:29:24;;;;;;;12.00;5.80;;;2.30;85.60;;;;;;5084762;28;20157;-65
2023/01/24 08:31:51;;;;;;;11.70;5.47;;;2.30;85.60;;;;;;5083901;28;20063;-66
2023/01/24 08:34:18;;;;;;;9.63;4.63;;;2.40;85.60;;;;;;5083386;28;20051;-65
2023/01/24 08:36:44;;;;;;;10.57;4.82;;;2.30;85.50;;;;;;5081689;28;20142;-65
2023/01/24 08:39:11;;;;;;;10.98;5.72;;;2.40;85.50;;;;;;5083287;28;20067;-62
2023/01/24 08:41:38;;;;;;;11.43;5.60;;;2.40;85.50;;;;;;5085354;28;20059;-62
2023/01/24 08:44:07;;;;;;;11.68;5.68;;;2.40;85.50;;;;;;5086805;28;20051;-64
2023/01/24 08:46:35;;;;;;;11.52;5.45;;;2.40;85.40;;;;;;5083204;28;20076;-62
2023/01/24 08:49:03;;;;;;;9.40;4.95;;;2.50;85.40;;;;;;5084850;28;20052;-63
2023/01/24 08:51:30;;;;;;;10.48;5.55;;;2.50;85.40;;;;;;5082101;28;20074;-63
2023/01/24 08:53:57;;;;;;;10.75;5.95;;;2.50;85.30;;;;;;5090229;28;20045;-64
2023/01/24 08:56:24;;;;;;;12.07;6.65;;;2.50;85.30;;;;;;5086623;28;20048;-63
2023/01/24 08:58:51;;;;;;;13.10;6.95;;;2.50;85.20;;;;;;5085271;28;20047;-63
2023/01/24 09:01:18;;;;;;;15.55;7.97;;;2.50;85.30;;;;;;5086357;28;20040;-60
2023/01/24 09:03:46;;;;;;;14.57;7.88;;;2.50;85.30;;;;;;5083596;28;20044;-60
2023/01/24 09:06:14;;;;;;;12.75;7.05;;;2.60;85.20;;;;;;5088066;28;20498;-60
2023/01/24 09:08:41;;;;;;;13.88;6.72;;;2.60;85.20;;;;;;5087453;28;20048;-60
2023/01/24 09:11:09;;;;;;;11.85;6.68;;;2.60;85.10;;;;;;5085818;28;20122;-61
2023/01/24 09:13:37;;;;;;;10.57;5.90;;;2.60;85.00;;;;;;5089525;28;20079;-60
2023/01/24 09:16:04;;;;;;;9.88;5.50;;;2.70;84.90;;;;;;5087001;28;20122;-59
2023/01/24 09:18:31;;;;;;;11.38;5.70;;;2.70;84.90;;;;;;5085312;28;20478;-60
2023/01/24 09:21:02;;;;;;;11.18;5.75;;;2.70;84.80;;;;;;5086126;28;20044;-60
2023/01/24 09:23:32;;;;;;;11.63;6.05;;;2.70;84.80;;;;;;5089892;28;20052;-60
2023/01/24 09:25:59;;;;;;;13.57;6.25;;;2.80;84.70;;;;;;5087165;28;20048;-61
2023/01/24 09:28:25;;;;;;;11.65;6.25;;;2.80;84.70;;;;;;5086804;28;20898;-60
2023/01/24 09:30:52;;;;;;;11.38;5.95;;;2.80;84.60;;;;;;5085828;28;20052;-58
2023/01/24 09:33:19;;;;;;;11.93;6.15;;;2.80;84.50;;;;;;5085403;28;20048;-60
2023/01/24 09:35:59;;;;;;;12.20;5.78;;;2.80;84.40;;;;;;5089803;28;20056;-61
2023/01/24 09:38:29;;;;;;;13.55;6.00;;;2.90;84.40;;;;;;5087701;28;20048;-60
2023/01/24 09:41:06;;;;;;;11.68;5.97;;;2.90;84.50;;;;;;5084457;28;20067;-60
2023/01/24 09:43:46;;;;;;;12.35;5.78;;;2.90;84.30;;;;;;5087844;28;20044;-60
2023/01/24 09:46:31;;;;;;;10.80;5.63;;;2.90;84.30;;;;;;5085714;28;20071;-60
2023/01/24 09:49:14;;;;;;;10.07;5.03;;;2.90;84.20;;;;;;5087067;28;20048;-62
2023/01/24 09:51:45;;;;;;;11.00;5.63;;;2.90;84.20;;;;;;5088129;28;20098;-68
2023/01/24 09:54:21;;;;;;;10.23;5.43;;;3.00;84.00;;;;;;5086069;28;20486;-68
2023/01/24 09:56:48;;;;;;;11.32;5.97;;;3.00;84.10;;;;;;5088323;28;20041;-71
2023/01/24 09:59:21;;;;;;;9.73;5.20;;;3.00;83.90;;;;;;5081686;28;20379;-71
2023/01/24 10:01:50;;;;;;;10.13;5.00;;;3.00;83.70;;;;;;5087099;28;20051;-71
2023/01/24 10:04:20;;;;;;;12.00;5.72;;;3.00;83.60;;;;;;5085131;28;20051;-70
2023/01/24 10:07:07;;;;;;;10.15;4.88;;;3.10;83.60;;;;;;5079455;28;20056;-73
2023/01/24 10:09:48;;;;;;;10.57;5.30;;;3.10;83.50;;;;;;5087498;28;20044;-71
2023/01/24 10:12:25;;;;;;;10.43;5.03;;;3.10;83.30;;;;;;5086259;28;20051;-70
2023/01/24 10:15:05;;;;;;;12.30;5.78;;;3.10;83.40;;;;;;5085341;28;20070;-71
2023/01/24 10:18:04;;;;;;;8.60;5.03;;;3.10;83.20;;;;;;5087309;28;20047;-70
2023/01/24 10:20:46;;;;;;;11.30;5.28;;;3.10;83.00;;;;;;5083377;28;20161;-71
2023/01/24 10:23:17;;;;;;;9.65;4.90;;;3.10;83.00;;;;;;5088087;28;20055;-71
2023/01/24 10:25:51;;;;;;;11.27;5.57;;;3.20;82.80;;;;;;5083034;28;20506;-71
2023/01/24 10:28:23;;;;;;;9.75;5.10;;;3.20;82.90;;;;;;5083907;28;20059;-70
2023/01/24 10:30:57;;;;;;;9.43;4.90;;;3.20;82.90;;;;;;5083482;28;20063;-60
2023/01/24 10:33:30;;;;;;;10.98;5.10;;;3.20;82.80;;;;;;5088746;28;20048;-60
2023/01/24 10:36:00;;;;;;;10.65;5.15;;;3.20;82.70;;;;;;5085123;28;20036;-60
2023/01/24 10:38:29;;;;;;;9.57;5.05;;;3.30;82.70;;;;;;5086459;28;20483;-60
2023/01/24 10:41:02;;;;;;;8.85;4.72;;;3.20;82.60;;;;;;5086002;28;20048;-61
2023/01/24 10:43:31;;;;;;;9.77;5.20;;;3.30;82.60;;;;;;5085132;28;20044;-59
2023/01/24 10:46:12;;;;;;;9.27;5.20;;;3.20;82.30;;;;;;5083031;28;20048;-59
2023/01/24 10:48:42;;;;;;;9.85;4.55;;;3.30;82.20;;;;;;5087872;28;20490;-59
2023/01/24 10:51:15;;;;;;;10.55;4.32;;;3.30;82.00;;;;;;5086047;28;20147;-59
2023/01/24 10:53:42;;;;;;;9.10;4.70;;;3.30;81.90;;;;;;5086196;28;20048;-61
2023/01/24 10:56:11;;;;;;;8.10;4.70;;;3.30;81.70;;;;;;5087098;28;20112;-60
2023/01/24 10:58:42;;;;;;;9.57;4.50;;;3.30;81.90;;;;;;5085037;28;20052;-60
2023/01/24 11:01:18;;;;;;;10.23;4.80;;;3.30;81.60;;;;;;5084447;28;20072;-60
2023/01/24 11:03:47;;;;;;;8.85;4.25;;;3.40;81.60;;;;;;5084932;28;20048;-60
2023/01/24 11:06:24;;;;;;;8.73;4.55;;;3.40;81.60;;;;;;5085829;28;20060;-58
2023/01/24 11:08:56;;;;;;;8.80;4.50;;;3.40;81.30;;;;;;5085940;28;20056;-59
2023/01/24 11:11:28;;;;;;;9.48;4.88;;;3.40;81.30;;;;;;5083775;28;20062;-60
2023/01/24 11:13:57;;;;;;;8.38;4.15;;;3.40;81.40;;;;;;5082865;28;20043;-60
2023/01/24 11:16:30;;;;;;;8.82;4.45;;;3.40;81.30;;;;;;5080357;28;20062;-60
2023/01/24 11:18:59;;;;;;;9.43;4.80;;;3.40;81.40;;;;;;5084584;28;20051;-60
2023/01/24 11:21:27;;;;;;;9.27;4.53;;;3.40;81.30;;;;;;5086361;28;20131;-61
2023/01/24 11:24:08;;;;;;;7.93;4.50;;;3.50;81.10;;;;;;5085444;28;20506;-61
2023/01/24 11:26:38;;;;;;;;;;;3.40;81.10;;;;;;5079025;28;20044;-61
2023/01/24 11:29:07;;;;;;;17.67;7.97;;;3.50;81.00;;;;;;5086857;28;20274;-61
2023/01/24 11:31:38;;;;;;;13.80;7.25;;;3.40;80.80;;;;;;5086694;28;20528;-60
2023/01/24 11:34:28;;;;;;;13.80;7.22;;;3.40;80.70;;;;;;5082663;28;20051;-62
2023/01/24 11:37:14;;;;;;;11.82;5.68;;;3.50;80.70;;;;;;5085892;28;20067;-61
2023/01/24 11:39:50;;;;;;;11.07;5.93;;;3.50;80.50;;;;;;5079069;28;20117;-62
2023/01/24 11:42:29;;;;;;;11.63;5.40;;;3.50;80.70;;;;;;5078881;28;20117;-62
2023/01/24 11:45:15;;;;;;;8.18;4.72;;;3.50;80.40;;;;;;5084555;28;20044;-59
2023/01/24 11:47:51;;;;;;;10.88;5.05;;;3.50;80.40;;;;;;5082562;28;20055;-62
2023/01/24 11:50:29;;;;;;;11.15;5.20;;;3.50;80.50;;;;;;5085010;28;20067;-61
2023/01/24 11:53:21;;;;;;;9.32;4.53;;;3.50;80.60;;;;;;5078190;28;20052;-61
2023/01/24 11:55:59;;;;;;;9.38;4.40;;;3.50;80.30;;;;;;5076455;28;20051;-61
2023/01/24 11:58:46;;;;;;;8.80;4.50;;;3.60;80.50;;;;;;5080710;28;20047;-61
2023/01/24 12:01:22;;;;;;;8.88;4.65;;;3.60;80.40;;;;;;5079806;28;20050;-60
2023/01/24 12:04:43;;;;;;;9.40;5.18;;;3.60;80.20;;;;;;5084350;28;20052;-61
2023/01/24 12:07:17;;;;;;;9.88;5.07;;;3.70;80.20;;;;;;5012845;28;20048;-62
2023/01/24 12:09:49;;;;;;;8.07;4.47;;;3.70;80.20;;;;;;5013013;28;20523;-61
2023/01/24 12:12:25;;;;;;;8.90;4.65;;;3.70;80.50;;;;;;5059216;28;20048;-60
2023/01/24 12:15:18;;;;;;;8.48;4.10;;;3.60;80.10;;;;;;5081732;28;20052;-61
2023/01/24 12:18:07;;;;;;;9.55;4.80;;;3.70;80.00;;;;;;5076637;28;20063;-61
2023/01/24 12:20:55;;;;;;;9.40;4.53;;;3.70;80.20;;;;;;5084159;28;20418;-60
2023/01/24 12:23:28;;;;;;;8.73;4.22;;;3.70;79.90;;;;;;5078845;28;20048;-60
2023/01/24 12:26:00;;;;;;;7.38;4.00;;;3.70;80.00;;;;;;5083958;28;20097;-60
2023/01/24 12:28:34;;;;;;;9.05;4.43;;;3.70;79.90;;;;;;5083412;28;20146;-61
2023/01/24 12:31:05;;;;;;;9.82;4.65;;;3.70;79.80;;;;;;5089248;28;20466;-61
2023/01/24 12:33:35;;;;;;;9.13;4.93;;;3.70;79.80;;;;;;5089475;28;20047;-60
2023/01/24 12:36:10;;;;;;;7.50;4.25;;;3.70;79.60;;;;;;5084342;28;20047;-61
2023/01/24 12:38:42;;;;;;;9.57;4.18;;;3.70;79.60;;;;;;5090198;28;20070;-61
2023/01/24 12:41:16;;;;;;;8.73;5.18;;;3.70;79.70;;;;;;5088152;28;20056;-61
2023/01/24 12:43:59;;;;;;;9.77;4.93;;;3.70;80.00;;;;;;5085727;28;20053;-60
2023/01/24 12:46:34;;;;;;;10.30;4.80;;;3.70;79.60;;;;;;5084603;28;20124;-60
2023/01/24 12:49:11;;;;;;;9.10;4.75;;;3.80;79.70;;;;;;5086704;28;20059;-59
2023/01/24 12:51:43;;;;;;;8.10;4.25;;;3.80;79.60;;;;;;5087176;28;20044;-61
2023/01/24 12:54:15;;;;;;;8.40;4.35;;;3.80;79.50;;;;;;5089263;28;20055;-60
2023/01/24 12:56:50;;;;;;;8.68;4.35;;;3.80;80.00;;;;;;5089871;28;20595;-61
2023/01/24 12:59:25;;;;;;;9.65;4.85;;;3.80;79.60;;;;;;5085853;28;20067;-60
2023/01/24 13:02:16;;;;;;;9.13;4.68;;;3.80;79.60;;;;;;5085604;28;20044;-61
2023/01/24 13:04:49;;;;;;;8.43;4.30;;;3.80;79.70;;;;;;5085585;28;20047;-61
2023/01/24 13:07:29;;;;;;;10.48;4.95;;;3.90;79.70;;;;;;5087822;28;20048;-61
2023/01/24 13:10:06;;;;;;;7.37;3.77;;;3.80;79.70;;;;;;5087296;28;20048;-61
2023/01/24 13:12:33;;;;;;;7.20;3.80;;;3.80;80.00;;;;;;5084488;28;20052;-60
2023/01/24 13:15:04;;;;;;;7.88;4.22;;;3.90;79.80;;;;;;5086113;28;20063;-61
2023/01/24 13:17:38;;;;;;;;;;;3.80;79.80;;;;;;5081763;28;20052;-60
2023/01/24 13:20:27;;;;;;;7.93;3.97;;;3.90;79.80;;;;;;5088638;28;19927;-61
2023/01/24 13:23:39;;;;;;;9.20;4.57;;;3.90;79.60;;;;;;5087824;28;20064;-60
2023/01/24 13:26:29;;;;;;;8.20;3.67;;;3.90;79.70;;;;;;4979071;28;20069;-60
2023/01/24 13:29:10;;;;;;;7.70;4.07;;;3.90;79.60;;;;;;5080343;28;20051;-60
2023/01/24 13:31:49;;;;;;;10.75;4.97;;;3.90;80.10;;;;;;5088087;28;20051;-60
2023/01/24 13:34:21;;;;;;;9.60;4.70;;;3.90;79.70;;;;;;5085451;28;20044;-60
2023/01/24 13:36:50;;;;;;;9.98;6.03;;;3.90;79.70;;;;;;5088938;28;20055;-60
2023/01/24 13:39:35;;;;;;;11.65;5.93;;;3.90;79.60;;;;;;5087785;28;20044;-61
2023/01/24 13:42:06;;;;;;;9.95;5.53;;;3.90;79.80;;;;;;5086251;28;20048;-60
2023/01/24 13:44:35;;;;;;;11.38;5.28;;;3.90;79.50;;;;;;5087621;28;20051;-61
2023/01/24 13:47:06;;;;;;;7.82;4.43;;;3.90;79.60;;;;;;5089518;28;20048;-64
2023/01/24 13:49:39;;;;;;;7.57;4.55;;;3.90;79.80;;;;;;5090548;28;20044;-62